Time;durP1;ratioP1;P1;durP2;ratioP2;P2;SDS_P1;SDS_P2;PMS_P1;PMS_P2;Temp;Humidity;BMP_temperature;BMP_pressure;BME280_temperature;BME280_humidity;BME280_pressure;Samples;Min_cycle;Max_cycle;Signal;HPM_P1;HPM_P2
2022/08/07 00:02:23;;;;;;;3.87;2.80;;;19.00;93.30;;;;;;5006941;28;20747;-68
2022/08/07 00:04:51;;;;;;;3.03;2.80;;;19.00;93.30;;;;;;5006401;28;20711;-68
2022/08/07 00:07:18;;;;;;;4.70;3.00;;;19.00;93.30;;;;;;4989836;28;20202;-68
2022/08/07 00:09:45;;;;;;;3.77;2.90;;;19.00;93.50;;;;;;4988925;28;20949;-68
2022/08/07 00:12:12;;;;;;;3.13;2.83;;;19.00;93.80;;;;;;4988524;28;20580;-68
2022/08/07 00:14:39;;;;;;;3.43;3.13;;;19.00;93.90;;;;;;4988937;28;20214;-68
2022/08/07 00:17:06;;;;;;;4.63;2.70;;;19.00;93.60;;;;;;4988704;28;20236;-68
2022/08/07 00:19:33;;;;;;;4.33;2.63;;;18.90;93.60;;;;;;5004363;28;20213;-68
2022/08/07 00:22:01;;;;;;;4.70;3.20;;;18.90;93.50;;;;;;5007930;28;20680;-68
2022/08/07 00:24:28;;;;;;;4.67;3.10;;;18.80;93.50;;;;;;5007443;28;20732;-68
2022/08/07 00:26:55;;;;;;;3.47;2.93;;;18.80;93.80;;;;;;5007801;28;20240;-68
2022/08/07 00:29:24;;;;;;;4.67;2.83;;;18.70;93.90;;;;;;5008258;28;20534;-68
2022/08/07 00:31:52;;;;;;;2.77;2.57;;;18.70;93.90;;;;;;5002129;28;20230;-69
2022/08/07 00:34:19;;;;;;;3.73;2.60;;;18.70;93.90;;;;;;4988715;28;20217;-69
2022/08/07 00:36:45;;;;;;;6.50;2.63;;;18.60;93.80;;;;;;4988586;28;20218;-68
2022/08/07 00:39:14;;;;;;;2.73;2.53;;;18.60;93.90;;;;;;4987757;28;20202;-68
2022/08/07 00:41:49;;;;;;;2.97;2.70;;;18.60;93.90;;;;;;4988327;28;20605;-68
2022/08/07 00:44:15;;;;;;;3.20;2.80;;;18.50;94.10;;;;;;4988390;28;20205;-69
2022/08/07 00:46:42;;;;;;;3.20;2.70;;;18.50;94.10;;;;;;4988378;28;20217;-68
2022/08/07 00:49:09;;;;;;;3.13;2.83;;;18.40;94.30;;;;;;5000562;28;20213;-68
2022/08/07 00:51:36;;;;;;;3.37;2.83;;;18.40;94.30;;;;;;5007898;28;20233;-68
2022/08/07 00:54:03;;;;;;;2.60;2.40;;;18.40;94.50;;;;;;5007800;28;20205;-68
2022/08/07 00:56:31;;;;;;;3.57;3.07;;;18.40;94.80;;;;;;5007086;28;20210;-68
2022/08/07 00:58:58;;;;;;;3.63;2.70;;;18.40;94.70;;;;;;5007713;28;20619;-68
2022/08/07 01:01:26;;;;;;;4.03;2.70;;;18.40;94.80;;;;;;4989714;28;20213;-68
2022/08/07 01:03:53;;;;;;;4.10;3.30;;;18.40;94.70;;;;;;4988463;28;20218;-68
2022/08/07 01:06:20;;;;;;;3.30;3.00;;;18.30;94.70;;;;;;4987946;28;20244;-68
2022/08/07 01:08:48;;;;;;;3.17;2.87;;;18.30;94.90;;;;;;5006208;28;20212;-68
2022/08/07 01:11:16;;;;;;;2.60;2.40;;;18.20;95.00;;;;;;5006925;28;20232;-68
2022/08/07 01:13:45;;;;;;;4.07;2.63;;;18.20;95.00;;;;;;5007873;28;20209;-68
2022/08/07 01:16:13;;;;;;;4.13;2.90;;;18.20;95.00;;;;;;5007226;28;20296;-68
2022/08/07 01:18:40;;;;;;;3.17;2.87;;;18.10;95.00;;;;;;5007516;28;20213;-68
2022/08/07 01:21:11;;;;;;;3.83;2.40;;;18.10;95.00;;;;;;5007543;28;20206;-68
2022/08/07 01:23:39;;;;;;;4.17;2.67;;;18.10;95.10;;;;;;4988007;28;20217;-68
2022/08/07 01:26:08;;;;;;;3.03;2.30;;;18.00;95.20;;;;;;4987393;28;20325;-68
2022/08/07 01:28:35;;;;;;;3.20;2.80;;;17.90;95.30;;;;;;4988409;28;20202;-68
2022/08/07 01:31:04;;;;;;;3.63;3.00;;;17.90;95.50;;;;;;4987931;28;20221;-68
2022/08/07 01:33:32;;;;;;;3.33;3.03;;;17.90;95.50;;;;;;4987832;28;20325;-68
2022/08/07 01:36:01;;;;;;;3.40;2.67;;;17.90;95.70;;;;;;4989136;28;20210;-68
2022/08/07 01:38:30;;;;;;;2.90;2.53;;;17.90;95.80;;;;;;4991433;28;20304;-69
2022/08/07 01:40:59;;;;;;;3.00;2.80;;;17.90;95.90;;;;;;4991250;28;20220;-70
2022/08/07 01:43:27;;;;;;;2.83;2.63;;;17.90;95.90;;;;;;4991600;28;20585;-70
2022/08/07 01:45:55;;;;;;;3.13;2.67;;;17.90;96.10;;;;;;4991114;28;20692;-68
2022/08/07 01:48:22;;;;;;;3.30;3.00;;;17.80;95.90;;;;;;4997407;28;20216;-70
2022/08/07 01:50:53;;;;;;;3.03;2.73;;;17.80;96.00;;;;;;5011006;28;20587;-70
2022/08/07 01:53:22;;;;;;;2.93;2.73;;;17.80;96.20;;;;;;5011043;28;20205;-70
2022/08/07 01:55:53;;;;;;;3.00;2.80;;;17.70;96.00;;;;;;5010828;28;20216;-71
2022/08/07 01:58:22;;;;;;;3.20;2.90;;;17.60;96.20;;;;;;5010842;28;20202;-70
2022/08/07 02:00:54;;;;;;;2.80;2.60;;;17.60;96.20;;;;;;5010359;28;20205;-70
2022/08/07 02:03:23;;;;;;;2.90;2.60;;;17.50;96.20;;;;;;5010812;28;20193;-70
2022/08/07 02:05:53;;;;;;;2.70;2.50;;;17.50;96.30;;;;;;5010742;28;20209;-68
2022/08/07 02:08:23;;;;;;;3.57;3.17;;;17.50;96.50;;;;;;5010358;28;20205;-68
2022/08/07 02:10:55;;;;;;;4.87;3.13;;;17.50;96.70;;;;;;5002320;28;20553;-68
2022/08/07 02:13:23;;;;;;;5.13;2.80;;;17.50;96.70;;;;;;4991120;28;20225;-68
2022/08/07 02:15:51;;;;;;;3.10;2.90;;;17.50;96.90;;;;;;4990875;28;20687;-68
2022/08/07 02:18:19;;;;;;;6.73;3.30;;;17.40;97.30;;;;;;4996530;28;20218;-68
2022/08/07 02:20:51;;;;;;;2.93;2.73;;;17.40;97.60;;;;;;5010718;28;20378;-69
2022/08/07 02:23:19;;;;;;;3.43;2.97;;;17.30;97.70;;;;;;5001047;28;20553;-68
2022/08/07 02:25:48;;;;;;;4.63;3.10;;;17.40;97.90;;;;;;4990657;28;20230;-68
2022/08/07 02:28:18;;;;;;;3.97;3.33;;;17.30;98.20;;;;;;4990689;28;20705;-69
2022/08/07 02:30:46;;;;;;;3.10;2.80;;;17.40;98.00;;;;;;4991053;28;20210;-69
2022/08/07 02:33:15;;;;;;;3.67;2.97;;;17.40;98.00;;;;;;4990788;28;20242;-69
2022/08/07 02:35:44;;;;;;;3.90;3.27;;;17.30;98.10;;;;;;5002150;28;20201;-68
2022/08/07 02:38:12;;;;;;;2.90;2.70;;;17.30;98.10;;;;;;5010128;28;20202;-70
2022/08/07 02:40:39;;;;;;;3.30;3.00;;;17.20;98.20;;;;;;5010141;28;20240;-70
2022/08/07 02:43:07;;;;;;;3.17;2.63;;;17.20;98.40;;;;;;5010346;28;20217;-70
2022/08/07 02:45:39;;;;;;;3.50;2.93;;;17.20;98.30;;;;;;5009859;28;20664;-70
2022/08/07 02:48:06;;;;;;;3.33;3.00;;;17.20;97.80;;;;;;4999367;28;20224;-70
2022/08/07 02:50:34;;;;;;;3.70;2.87;;;17.10;97.60;;;;;;5010020;28;20216;-69
2022/08/07 02:53:04;;;;;;;3.30;3.10;;;17.10;97.70;;;;;;5009619;28;20283;-70
2022/08/07 02:55:34;;;;;;;3.63;3.07;;;17.10;97.80;;;;;;5009502;28;20217;-71
2022/08/07 02:58:05;;;;;;;4.43;3.30;;;17.10;98.40;;;;;;5010105;28;20593;-71
2022/08/07 03:00:38;;;;;;;4.67;3.57;;;17.10;98.70;;;;;;5008993;28;20241;-71
2022/08/07 03:03:07;;;;;;;3.33;2.77;;;17.00;98.80;;;;;;5009868;28;20190;-71
2022/08/07 03:05:37;;;;;;;3.07;2.80;;;17.00;98.40;;;;;;5009542;28;20208;-71
2022/08/07 03:08:06;;;;;;;3.37;3.07;;;17.00;98.10;;;;;;4991327;28;20381;-71
2022/08/07 03:10:33;;;;;;;3.77;3.00;;;17.00;98.20;;;;;;4989876;28;20209;-70
2022/08/07 03:13:01;;;;;;;2.80;2.67;;;17.00;98.40;;;;;;4989906;28;20715;-70
2022/08/07 03:15:28;;;;;;;3.90;3.00;;;16.90;98.70;;;;;;4989753;28;20210;-70
2022/08/07 03:17:58;;;;;;;4.87;2.97;;;16.90;99.20;;;;;;4992182;28;20689;-70
2022/08/07 03:20:26;;;;;;;3.70;2.73;;;17.00;99.20;;;;;;5009251;28;20631;-70
2022/08/07 03:22:54;;;;;;;5.57;3.17;;;17.00;99.30;;;;;;5005154;28;20208;-69
2022/08/07 03:25:22;;;;;;;3.90;2.93;;;16.90;99.30;;;;;;4989148;28;20261;-70
2022/08/07 03:27:49;;;;;;;10.33;3.10;;;16.90;99.30;;;;;;4989820;28;20210;-70
2022/08/07 03:30:17;;;;;;;4.23;2.93;;;16.90;99.10;;;;;;4989581;28;20206;-69
2022/08/07 03:32:45;;;;;;;5.60;3.37;;;16.90;99.00;;;;;;4989309;28;20230;-70
2022/08/07 03:35:17;;;;;;;3.33;2.97;;;16.90;99.10;;;;;;4989792;28;20217;-70
2022/08/07 03:37:45;;;;;;;5.10;3.23;;;16.90;99.30;;;;;;4989486;28;20196;-70
2022/08/07 03:40:13;;;;;;;2.73;2.53;;;16.80;99.50;;;;;;4989259;28;20202;-70
2022/08/07 03:42:40;;;;;;;3.30;2.87;;;16.80;99.20;;;;;;4989015;28;20688;-69
2022/08/07 03:45:09;;;;;;;3.03;2.83;;;16.80;98.80;;;;;;4989558;28;20217;-70
2022/08/07 03:47:37;;;;;;;3.67;2.77;;;16.70;98.90;;;;;;4990062;28;20673;-70
2022/08/07 03:50:04;;;;;;;3.40;3.10;;;16.70;99.00;;;;;;4990979;28;20202;-70
2022/08/07 03:52:33;;;;;;;3.30;3.10;;;16.70;99.20;;;;;;5008644;28;20233;-70
2022/08/07 03:55:01;;;;;;;3.83;3.00;;;16.70;99.00;;;;;;5008570;28;20586;-70
2022/08/07 03:57:30;;;;;;;3.33;3.03;;;16.70;99.00;;;;;;5008140;28;20217;-70
2022/08/07 03:59:57;;;;;;;3.00;2.80;;;16.60;99.00;;;;;;4999465;28;20233;-70
2022/08/07 04:02:25;;;;;;;3.73;3.50;;;16.60;99.10;;;;;;5008485;28;20206;-70
2022/08/07 04:04:51;;;;;;;3.57;2.80;;;16.60;99.20;;;;;;5008682;28;20229;-71
2022/08/07 04:07:19;;;;;;;3.13;2.93;;;16.60;99.50;;;;;;5008264;28;20217;-71
2022/08/07 04:09:49;;;;;;;3.13;2.83;;;16.50;99.90;;;;;;5008421;28;20213;-70
2022/08/07 04:12:16;;;;;;;6.30;3.10;;;16.60;99.90;;;;;;4990474;28;20230;-70
2022/08/07 04:14:44;;;;;;;4.13;2.70;;;16.50;99.70;;;;;;4988717;28;20733;-70
2022/08/07 04:17:11;;;;;;;3.00;2.80;;;16.50;99.80;;;;;;4988719;28;20225;-70
2022/08/07 04:19:40;;;;;;;4.10;3.03;;;16.50;99.70;;;;;;4995473;28;20296;-70
2022/08/07 04:22:07;;;;;;;3.30;3.00;;;16.50;99.70;;;;;;4989598;28;20218;-70
2022/08/07 04:24:35;;;;;;;7.10;3.00;;;16.60;99.80;;;;;;5007848;28;20682;-70
2022/08/07 04:27:04;;;;;;;3.23;2.90;;;16.60;99.90;;;;;;5007859;28;20229;-70
2022/08/07 04:29:31;;;;;;;3.23;2.90;;;16.60;99.90;;;;;;5007993;28;20215;-70
2022/08/07 04:31:58;;;;;;;4.87;3.10;;;16.60;99.90;;;;;;5008114;28;20219;-69
2022/08/07 04:34:25;;;;;;;2.83;2.63;;;16.70;99.90;;;;;;5003259;28;20216;-69
2022/08/07 04:36:52;;;;;;;3.00;2.57;;;16.70;99.90;;;;;;4988633;28;20210;-70
2022/08/07 04:39:19;;;;;;;3.43;2.70;;;16.70;99.90;;;;;;4987986;28;20633;-70
2022/08/07 04:41:46;;;;;;;3.33;3.00;;;16.70;99.90;;;;;;4988016;28;20220;-70
2022/08/07 04:44:15;;;;;;;2.60;2.40;;;16.70;99.90;;;;;;5003189;28;20205;-70
2022/08/07 04:46:47;;;;;;;4.20;2.40;;;16.70;99.90;;;;;;5007315;28;20208;-70
2022/08/07 04:49:23;;;;;;;7.73;2.80;;;16.80;99.90;;;;;;5007581;28;20205;-69
2022/08/07 04:52:02;;;;;;;3.43;2.90;;;16.90;99.90;;;;;;5007821;28;20561;-69
2022/08/07 04:54:34;;;;;;;4.73;2.63;;;16.90;99.90;;;;;;5007480;28;20213;-69
2022/08/07 04:57:11;;;;;;;2.57;2.43;;;16.90;99.90;;;;;;4993661;28;20199;-68
2022/08/07 04:59:51;;;;;;;2.50;2.30;;;17.00;99.90;;;;;;4988254;28;20238;-69
2022/08/07 05:02:26;;;;;;;2.77;2.57;;;17.00;99.90;;;;;;4988068;28;20217;-68
2022/08/07 05:04:59;;;;;;;4.47;2.80;;;17.10;99.90;;;;;;4988453;28;20259;-68
2022/08/07 05:07:36;;;;;;;3.93;2.33;;;17.10;99.90;;;;;;4989127;28;20216;-69
2022/08/07 05:10:06;;;;;;;3.10;2.80;;;17.20;99.90;;;;;;5009254;28;20221;-69
2022/08/07 05:12:39;;;;;;;5.77;2.60;;;17.20;99.90;;;;;;5011555;28;20225;-69
2022/08/07 05:15:16;;;;;;;2.73;2.43;;;17.30;99.90;;;;;;5011900;28;20208;-69
2022/08/07 05:17:45;;;;;;;2.87;2.60;;;17.30;99.90;;;;;;5011752;28;20189;-69
2022/08/07 05:20:15;;;;;;;3.13;2.70;;;17.30;99.90;;;;;;5011174;28;20222;-70
2022/08/07 05:22:46;;;;;;;3.60;2.60;;;17.40;99.90;;;;;;5011563;28;20190;-69
2022/08/07 05:25:16;;;;;;;2.60;2.23;;;17.40;99.90;;;;;;5011292;28;20252;-70
2022/08/07 05:27:46;;;;;;;2.70;2.50;;;17.50;99.90;;;;;;5011630;28;20521;-70
2022/08/07 05:30:16;;;;;;;2.47;2.27;;;17.50;99.90;;;;;;5011507;28;20202;-70
2022/08/07 05:32:46;;;;;;;4.40;2.50;;;17.60;99.90;;;;;;4998674;28;20213;-70
2022/08/07 05:35:17;;;;;;;3.50;2.53;;;17.60;99.90;;;;;;4991461;28;20744;-70
2022/08/07 05:37:44;;;;;;;2.30;2.13;;;17.70;99.90;;;;;;4991330;28;20939;-70
2022/08/07 05:40:12;;;;;;;2.10;1.93;;;17.70;99.90;;;;;;4998041;28;20204;-70
2022/08/07 05:42:39;;;;;;;2.73;2.53;;;17.80;99.90;;;;;;4995615;28;20242;-69
2022/08/07 05:45:07;;;;;;;3.47;2.60;;;17.80;99.90;;;;;;4991756;28;20213;-70
2022/08/07 05:47:36;;;;;;;2.77;2.43;;;17.90;99.90;;;;;;4991498;28;20213;-71
2022/08/07 05:50:03;;;;;;;4.93;2.53;;;18.00;99.90;;;;;;4991352;28;20212;-71
2022/08/07 05:52:30;;;;;;;2.63;2.43;;;18.00;99.90;;;;;;4991265;28;20238;-71
2022/08/07 05:54:57;;;;;;;2.80;2.10;;;18.10;99.90;;;;;;4991694;28;20206;-70
2022/08/07 05:57:25;;;;;;;2.40;2.20;;;18.10;99.90;;;;;;4990725;28;20207;-69
2022/08/07 05:59:54;;;;;;;3.03;2.43;;;18.10;99.90;;;;;;4991162;28;20237;-69
2022/08/07 06:02:22;;;;;;;2.30;2.10;;;18.10;99.90;;;;;;4990734;28;20202;-69
2022/08/07 06:04:55;;;;;;;3.73;2.23;;;18.20;99.90;;;;;;4991255;28;20206;-69
2022/08/07 06:07:22;;;;;;;4.20;2.03;;;18.30;99.80;;;;;;4991107;28;20194;-69
2022/08/07 06:09:49;;;;;;;2.03;1.93;;;18.30;99.40;;;;;;5009425;28;20204;-68
2022/08/07 06:12:16;;;;;;;2.03;1.93;;;18.30;99.00;;;;;;5010218;28;20221;-68
2022/08/07 06:14:43;;;;;;;2.87;1.80;;;18.40;98.50;;;;;;5010755;28;20235;-68
2022/08/07 06:17:12;;;;;;;3.00;2.10;;;18.40;98.00;;;;;;5010629;28;20576;-68
2022/08/07 06:19:40;;;;;;;2.57;1.90;;;18.40;97.80;;;;;;5010513;28;20308;-69
2022/08/07 06:22:11;;;;;;;3.77;2.00;;;18.50;97.40;;;;;;5009849;28;20329;-69
2022/08/07 06:24:38;;;;;;;2.90;1.97;;;18.50;97.40;;;;;;5010511;28;20296;-69
2022/08/07 06:27:05;;;;;;;2.00;1.80;;;18.50;97.10;;;;;;5010219;28;20212;-70
2022/08/07 06:29:33;;;;;;;3.37;1.90;;;18.60;96.90;;;;;;5009993;28;20213;-69
2022/08/07 06:32:00;;;;;;;4.07;1.73;;;18.60;96.00;;;;;;5010142;28;20212;-69
2022/08/07 06:34:28;;;;;;;1.70;1.60;;;18.70;95.90;;;;;;5010231;28;20259;-69
2022/08/07 06:36:55;;;;;;;2.50;1.87;;;18.70;95.60;;;;;;5009618;28;20201;-69
2022/08/07 06:39:23;;;;;;;2.70;1.73;;;18.80;95.50;;;;;;5010288;28;20567;-69
2022/08/07 06:41:57;;;;;;;2.97;1.80;;;18.80;95.60;;;;;;5009647;28;20224;-69
2022/08/07 06:44:27;;;;;;;2.30;1.63;;;18.80;95.20;;;;;;5010497;28;20193;-69
2022/08/07 06:46:53;;;;;;;1.90;1.60;;;18.90;94.60;;;;;;5009505;28;20684;-69
2022/08/07 06:49:20;;;;;;;2.10;1.63;;;18.90;94.40;;;;;;5009767;28;20677;-69
2022/08/07 06:51:48;;;;;;;1.67;1.57;;;18.90;93.80;;;;;;5010098;28;20209;-71
2022/08/07 06:54:18;;;;;;;1.67;1.30;;;19.00;93.90;;;;;;5009985;28;20229;-69
2022/08/07 06:56:49;;;;;;;2.70;1.60;;;19.00;94.00;;;;;;5010110;28;20278;-69
2022/08/07 06:59:19;;;;;;;2.37;1.90;;;19.10;93.70;;;;;;5009518;28;20269;-69
2022/08/07 07:01:47;;;;;;;2.00;1.80;;;19.10;93.60;;;;;;5009433;28;20197;-69
2022/08/07 07:04:15;;;;;;;1.70;1.60;;;19.10;93.40;;;;;;5009726;28;20217;-69
2022/08/07 07:06:43;;;;;;;3.13;1.80;;;19.20;93.50;;;;;;5009480;28;20213;-69
2022/08/07 07:09:22;;;;;;;1.40;1.30;;;19.20;93.50;;;;;;5009396;28;20264;-71
2022/08/07 07:12:17;;;;;;;3.93;1.70;;;19.20;93.40;;;;;;5009721;28;20205;-71
2022/08/07 07:14:50;;;;;;;2.97;1.40;;;19.30;93.40;;;;;;5009492;28;20228;-69
2022/08/07 07:17:24;;;;;;;1.53;1.43;;;19.30;93.10;;;;;;5009043;28;20324;-69
2022/08/07 07:19:55;;;;;;;3.17;1.47;;;19.30;92.90;;;;;;5009083;28;20661;-69
2022/08/07 07:22:22;;;;;;;1.63;1.47;;;19.30;92.80;;;;;;5008881;28;20753;-71
2022/08/07 07:24:50;;;;;;;1.53;1.43;;;19.40;92.70;;;;;;5009159;28;20223;-71
2022/08/07 07:27:23;;;;;;;4.93;1.97;;;19.40;92.70;;;;;;5008727;28;20229;-70
2022/08/07 07:29:56;;;;;;;2.57;2.17;;;19.40;92.90;;;;;;5008288;28;20198;-70
2022/08/07 07:32:24;;;;;;;4.97;4.57;;;19.40;92.90;;;;;;5007684;28;20204;-70
2022/08/07 07:35:01;;;;;;;3.17;2.83;;;19.50;93.00;;;;;;4988709;28;20241;-71
2022/08/07 07:37:30;;;;;;;2.70;1.70;;;19.50;92.80;;;;;;4989349;28;20205;-70
2022/08/07 07:40:01;;;;;;;3.90;1.90;;;19.50;92.60;;;;;;4989010;28;20206;-70
2022/08/07 07:42:31;;;;;;;5.70;2.03;;;19.50;92.70;;;;;;4989048;28;20281;-70
2022/08/07 07:45:01;;;;;;;2.97;1.60;;;19.60;92.60;;;;;;4989468;28;20198;-70
2022/08/07 07:47:29;;;;;;;1.73;1.60;;;19.60;92.60;;;;;;4989297;28;20216;-70
2022/08/07 07:49:57;;;;;;;5.80;1.77;;;19.70;93.10;;;;;;5008114;28;20213;-69
2022/08/07 07:52:26;;;;;;;3.40;1.97;;;19.70;93.10;;;;;;5008552;28;20209;-69
2022/08/07 07:54:55;;;;;;;2.23;1.80;;;19.70;93.20;;;;;;5008485;28;20225;-70
2022/08/07 07:57:24;;;;;;;3.23;2.40;;;19.80;93.20;;;;;;5008250;28;20215;-70
2022/08/07 07:59:54;;;;;;;3.00;2.00;;;19.80;92.80;;;;;;5008470;28;20241;-71
2022/08/07 08:02:23;;;;;;;2.57;1.90;;;19.80;92.50;;;;;;5007911;28;20237;-71
2022/08/07 08:04:51;;;;;;;1.50;1.40;;;19.80;92.90;;;;;;5008690;28;20222;-72
2022/08/07 08:07:19;;;;;;;2.40;1.73;;;19.90;92.80;;;;;;5008281;28;20209;-68
2022/08/07 08:09:49;;;;;;;2.37;1.40;;;19.90;92.90;;;;;;5008376;28;20212;-69
2022/08/07 08:12:16;;;;;;;4.17;1.67;;;20.00;93.10;;;;;;5008071;28;20201;-69
2022/08/07 08:14:43;;;;;;;2.93;1.40;;;20.00;92.70;;;;;;5008326;28;20239;-69
2022/08/07 08:17:13;;;;;;;3.03;1.37;;;20.00;92.20;;;;;;5008427;28;20562;-69
2022/08/07 08:19:41;;;;;;;4.33;1.70;;;20.10;92.40;;;;;;5004952;28;20206;-69
2022/08/07 08:27:44;;;;;;;3.30;1.50;;;20.20;92.50;;;;;;5006575;28;20656;-69
2022/08/07 08:30:12;;;;;;;3.83;3.53;;;20.30;92.60;;;;;;4994449;28;20689;-69
2022/08/07 08:32:43;;;;;;;3.93;3.20;;;20.30;92.50;;;;;;4998559;28;20221;-69
2022/08/07 08:35:15;;;;;;;3.60;1.60;;;20.40;92.60;;;;;;5006188;28;20228;-69
2022/08/07 08:37:45;;;;;;;1.33;1.23;;;20.40;92.40;;;;;;4988364;28;20284;-69
2022/08/07 08:40:18;;;;;;;1.70;1.60;;;20.40;92.10;;;;;;4986503;28;20205;-69
2022/08/07 08:42:49;;;;;;;2.97;1.43;;;20.40;92.00;;;;;;4986839;28;20203;-69
2022/08/07 08:45:22;;;;;;;1.50;1.40;;;20.40;92.10;;;;;;4986826;28;20213;-70
2022/08/07 08:48:04;;;;;;;2.75;1.08;;;20.40;91.90;;;;;;4988904;28;20262;-70
2022/08/07 08:50:37;;;;;;;1.33;1.10;;;20.50;90.70;;;;;;5006427;28;20244;-70
2022/08/07 08:53:12;;;;;;;1.57;1.40;;;20.50;91.00;;;;;;5006186;28;20202;-69
2022/08/07 08:55:44;;;;;;;1.15;1.13;;;20.60;91.30;;;;;;5005833;28;20236;-69
2022/08/07 08:58:14;;;;;;;3.70;1.50;;;20.70;91.60;;;;;;5006149;28;20665;-69
2022/08/07 09:00:45;;;;;;;3.03;1.50;;;20.80;91.60;;;;;;5004514;28;20247;-69
2022/08/07 09:03:24;;;;;;;3.17;1.40;;;20.80;91.50;;;;;;5005908;28;20237;-70
2022/08/07 09:05:55;;;;;;;1.60;1.50;;;20.90;91.20;;;;;;5006103;28;20221;-68
2022/08/07 09:08:38;;;;;;;2.20;1.63;;;21.00;91.00;;;;;;5004811;28;20193;-68
2022/08/07 09:11:17;;;;;;;1.60;1.50;;;21.00;90.00;;;;;;4986673;28;20522;-68
2022/08/07 09:14:01;;;;;;;3.25;1.50;;;21.10;90.20;;;;;;5000559;28;20213;-72
2022/08/07 09:16:39;;;;;;;3.28;1.67;;;21.20;90.40;;;;;;5006356;28;20569;-69
2022/08/07 09:19:20;;;;;;;1.60;1.50;;;21.10;90.40;;;;;;5006002;28;20297;-69
2022/08/07 09:21:53;;;;;;;2.00;1.60;;;21.10;90.20;;;;;;5005735;28;20220;-68
2022/08/07 09:24:30;;;;;;;1.83;1.70;;;21.10;90.00;;;;;;5006350;28;20217;-68
2022/08/07 09:27:07;;;;;;;2.27;2.03;;;21.10;90.00;;;;;;5006328;28;20208;-67
2022/08/07 09:29:44;;;;;;;1.90;1.80;;;21.10;89.10;;;;;;5005446;28;20202;-68
2022/08/07 09:32:20;;;;;;;2.45;1.98;;;21.30;88.40;;;;;;5005544;28;20296;-68
2022/08/07 09:35:04;;;;;;;1.85;1.73;;;21.40;88.20;;;;;;5006177;28;20308;-68
2022/08/07 09:37:41;;;;;;;1.50;1.40;;;21.50;87.20;;;;;;5006323;28;20636;-70
2022/08/07 09:40:20;;;;;;;1.20;1.10;;;21.60;87.60;;;;;;5006163;28;20290;-68
2022/08/07 09:42:56;;;;;;;5.95;1.80;;;21.70;87.50;;;;;;5005699;28;20217;-71
2022/08/07 09:45:34;;;;;;;2.83;1.63;;;21.80;87.10;;;;;;5005322;28;20685;-68
2022/08/07 09:48:13;;;;;;;2.50;1.52;;;21.90;87.60;;;;;;5005357;28;20209;-69
2022/08/07 09:50:56;;;;;;;1.40;1.30;;;22.00;86.50;;;;;;5005515;28;20544;-71
2022/08/07 09:53:25;;;;;;;2.47;1.38;;;22.10;85.90;;;;;;5005604;28;20216;-69
2022/08/07 09:56:23;;;;;;;1.50;1.40;;;22.20;85.00;;;;;;5004779;28;20209;-69
2022/08/07 09:59:03;;;;;;;2.22;1.52;;;22.30;84.90;;;;;;5007545;28;20233;-70
2022/08/07 10:02:21;;;;;;;1.50;1.40;;;22.50;85.20;;;;;;5010380;28;20213;-68
2022/08/07 10:05:03;;;;;;;2.35;1.30;;;22.60;84.30;;;;;;5010945;28;20220;-69
2022/08/07 10:07:57;;;;;;;5.03;1.33;;;22.80;83.90;;;;;;5010272;28;20695;-69
2022/08/07 10:10:34;;;;;;;2.00;1.30;;;22.90;83.80;;;;;;5009956;28;20194;-69
2022/08/07 10:13:37;;;;;;;1.17;1.08;;;23.00;82.40;;;;;;5009841;28;20202;-69
2022/08/07 10:16:16;;;;;;;1.30;1.30;;;23.10;82.70;;;;;;5009750;28;20798;-69
2022/08/07 10:19:02;;;;;;;1.80;1.40;;;23.20;81.80;;;;;;5010224;28;20217;-69
2022/08/07 10:21:40;;;;;;;1.65;1.45;;;23.20;81.60;;;;;;5010209;28;20560;-69
2022/08/07 10:24:35;;;;;;;1.42;1.25;;;23.20;82.30;;;;;;5004105;28;20201;-69
2022/08/07 10:27:17;;;;;;;4.00;1.33;;;23.20;83.10;;;;;;4990510;28;20598;-69
2022/08/07 10:29:59;;;;;;;1.30;1.20;;;23.20;80.70;;;;;;4990912;28;20240;-70
2022/08/07 10:32:53;;;;;;;1.88;1.10;;;23.30;81.10;;;;;;4990673;28;20200;-71
2022/08/07 10:35:27;;;;;;;2.70;1.45;;;23.50;80.60;;;;;;4990501;28;20309;-70
2022/08/07 10:38:06;;;;;;;1.83;1.20;;;23.60;79.10;;;;;;4990359;28;20970;-70
2022/08/07 10:40:42;;;;;;;1.45;1.25;;;23.60;79.50;;;;;;4990552;28;20285;-69
2022/08/07 10:43:15;;;;;;;6.53;1.38;;;23.70;79.40;;;;;;4990593;28;20206;-70
2022/08/07 10:45:47;;;;;;;1.75;1.20;;;23.70;79.00;;;;;;5007512;28;20284;-70
2022/08/07 10:48:31;;;;;;;4.13;1.30;;;23.70;79.30;;;;;;5010036;28;20222;-69
2022/08/07 10:51:05;;;;;;;2.92;1.35;;;23.80;80.60;;;;;;5010180;28;20202;-72
2022/08/07 10:53:41;;;;;;;1.55;1.20;;;23.90;79.20;;;;;;5010001;28;20208;-69
2022/08/07 10:56:15;;;;;;;2.75;1.20;;;24.00;79.00;;;;;;5009400;28;20652;-70
2022/08/07 10:58:57;;;;;;;1.40;1.30;;;24.10;78.20;;;;;;5009727;28;20288;-70
2022/08/07 11:01:37;;;;;;;2.10;1.08;;;24.00;77.90;;;;;;5009405;28;20745;-69
2022/08/07 11:04:12;;;;;;;1.77;1.10;;;24.00;78.00;;;;;;5009887;28;20292;-69
2022/08/07 11:06:49;;;;;;;1.25;0.95;;;24.10;77.70;;;;;;5009414;28;20196;-69
2022/08/07 11:09:22;;;;;;;1.10;1.00;;;24.20;77.30;;;;;;5008895;28;20641;-69
2022/08/07 11:11:57;;;;;;;2.22;1.30;;;24.30;77.60;;;;;;5008462;28;20201;-69
2022/08/07 11:14:29;;;;;;;1.55;1.33;;;24.50;78.00;;;;;;4989937;28;20213;-68
2022/08/07 11:17:01;;;;;;;1.23;1.17;;;24.60;78.60;;;;;;4989378;28;20276;-68
2022/08/07 11:19:36;;;;;;;1.42;1.27;;;24.70;77.70;;;;;;4988863;28;20277;-68
2022/08/07 11:22:10;;;;;;;1.02;1.02;;;24.80;77.30;;;;;;4988326;28;20624;-67
2022/08/07 11:24:44;;;;;;;1.67;0.82;;;24.80;77.30;;;;;;5000016;28;20723;-68
2022/08/07 11:27:21;;;;;;;3.35;1.38;;;24.90;76.90;;;;;;5007352;28;20205;-67
2022/08/07 11:29:57;;;;;;;1.98;1.00;;;25.00;76.60;;;;;;5005907;28;20630;-68
2022/08/07 11:32:37;;;;;;;1.55;1.00;;;25.00;76.70;;;;;;5004801;28;20276;-69
2022/08/07 11:35:10;;;;;;;2.20;0.93;;;25.00;76.20;;;;;;5006513;28;20240;-69
2022/08/07 11:37:58;;;;;;;2.70;1.08;;;25.00;76.10;;;;;;4987423;28;20202;-68
2022/08/07 11:40:35;;;;;;;1.05;1.02;;;25.00;75.90;;;;;;4987310;28;20191;-67
2022/08/07 11:43:13;;;;;;;2.50;1.05;;;25.00;75.60;;;;;;4987135;28;20198;-68
2022/08/07 11:46:05;;;;;;;2.35;1.50;;;25.00;76.10;;;;;;4986897;28;20201;-68
2022/08/07 11:49:00;;;;;;;2.15;1.17;;;25.10;76.10;;;;;;4986840;28;20205;-68
2022/08/07 11:51:38;;;;;;;2.20;0.80;;;25.10;76.70;;;;;;4987173;28;20206;-68
2022/08/07 11:54:22;;;;;;;0.80;0.80;;;25.20;75.20;;;;;;4987155;28;20202;-68
2022/08/07 11:57:02;;;;;;;1.30;1.20;;;25.20;74.90;;;;;;4986554;28;20199;-68
2022/08/07 11:59:47;;;;;;;2.38;1.20;;;25.30;75.30;;;;;;4989812;28;20722;-67
2022/08/07 12:02:27;;;;;;;2.90;1.50;;;25.30;76.60;;;;;;5002579;28;20209;-68
2022/08/07 12:05:07;;;;;;;1.23;1.10;;;25.40;74.70;;;;;;5006170;28;20657;-67
2022/08/07 12:07:38;;;;;;;1.48;1.30;;;25.40;73.80;;;;;;5005691;28;20666;-67
2022/08/07 12:10:13;;;;;;;1.23;0.93;;;25.40;75.00;;;;;;5005363;28;20289;-67
2022/08/07 12:12:46;;;;;;;0.90;0.90;;;25.40;74.10;;;;;;5006246;28;20577;-67
2022/08/07 12:15:18;;;;;;;1.98;1.02;;;25.30;73.70;;;;;;4996517;28;20995;-67
2022/08/07 12:17:49;;;;;;;1.58;1.20;;;25.30;74.60;;;;;;4987866;28;20198;-67
2022/08/07 12:20:23;;;;;;;1.30;1.20;;;25.20;74.20;;;;;;5006333;28;20205;-67
2022/08/07 12:23:08;;;;;;;1.10;0.90;;;25.00;74.30;;;;;;5007098;28;20189;-67
2022/08/07 12:25:53;;;;;;;3.38;1.20;;;25.00;74.60;;;;;;5006001;28;20351;-67
2022/08/07 12:28:27;;;;;;;3.30;1.40;;;24.80;74.40;;;;;;5006076;28;20284;-67
2022/08/07 12:31:01;;;;;;;3.60;1.42;;;24.70;74.70;;;;;;5005805;28;20584;-67
2022/08/07 12:33:32;;;;;;;1.45;1.13;;;24.70;75.10;;;;;;5006209;28;20197;-67
2022/08/07 12:36:01;;;;;;;2.22;1.10;;;24.80;75.50;;;;;;5005299;28;20233;-67
2022/08/07 12:38:29;;;;;;;2.85;1.08;;;24.90;75.90;;;;;;5006395;28;20672;-67
2022/08/07 12:40:59;;;;;;;0.88;0.80;;;25.00;74.90;;;;;;5006442;28;20228;-67
2022/08/07 12:43:32;;;;;;;1.13;1.05;;;25.00;75.30;;;;;;5006548;28;20579;-67
2022/08/07 12:46:20;;;;;;;3.40;1.10;;;25.10;75.10;;;;;;5006409;28;20201;-67
2022/08/07 12:48:57;;;;;;;1.20;1.17;;;25.20;75.20;;;;;;5005813;28;20570;-67
2022/08/07 12:51:26;;;;;;;1.10;1.00;;;25.20;74.80;;;;;;5006081;28;20217;-67
2022/08/07 12:53:58;;;;;;;4.78;1.02;;;25.20;74.90;;;;;;5005626;28;20304;-67
2022/08/07 12:56:30;;;;;;;1.33;0.98;;;25.30;75.50;;;;;;5005715;28;20217;-67
2022/08/07 12:58:59;;;;;;;3.35;1.10;;;25.20;75.20;;;;;;5005925;28;20243;-67
2022/08/07 13:01:41;;;;;;;1.13;1.05;;;25.20;75.70;;;;;;4992382;28;20573;-67
2022/08/07 13:04:28;;;;;;;0.93;0.82;;;25.10;75.30;;;;;;4988641;28;20195;-67
2022/08/07 13:07:37;;;;;;;1.50;0.93;;;25.10;75.30;;;;;;5005903;28;20197;-67
2022/08/07 13:10:17;;;;;;;20.08;2.58;;;25.20;74.90;;;;;;5005606;28;20297;-67
2022/08/07 13:13:00;;;;;;;1.10;0.98;;;25.30;75.70;;;;;;5005220;28;20194;-68
2022/08/07 13:15:37;;;;;;;1.20;1.10;;;25.40;74.40;;;;;;4998863;28;20217;-68
2022/08/07 13:18:31;;;;;;;2.42;1.30;;;25.40;75.60;;;;;;4989427;28;20215;-67
2022/08/07 13:21:05;;;;;;;2.58;1.13;;;25.40;75.20;;;;;;5005618;28;20198;-67